createdAt,value
2022-11-05T00:00:37.719Z,5.93
2022-11-05T00:03:23.375Z,5.47
2022-11-05T00:06:12.049Z,6.50
2022-11-05T00:08:59.224Z,6.28
2022-11-05T00:11:46.315Z,6.28
2022-11-05T00:14:32.166Z,5.27
2022-11-05T00:16:59.169Z,5.20
2022-11-05T00:19:26.083Z,6.10
2022-11-05T00:22:11.856Z,5.60
2022-11-05T00:24:57.301Z,5.38
2022-11-05T00:27:24.199Z,5.33
2022-11-05T00:29:51.155Z,4.80
2022-11-05T00:32:18.197Z,4.82
2022-11-05T00:34:45.210Z,5.53
2022-11-05T00:37:12.393Z,6.65
2022-11-05T00:39:39.426Z,6.67
2022-11-05T00:42:25.237Z,5.35
2022-11-05T00:45:01.416Z,4.70
2022-11-05T00:47:51.997Z,4.80
2022-11-05T00:50:21.472Z,4.72
2022-11-05T00:53:02.184Z,4.33
2022-11-05T00:55:41.130Z,5.90
2022-11-05T00:58:11.698Z,5.45
2022-11-05T01:00:41.949Z,3.65
2022-11-05T01:03:12.943Z,4.35
2022-11-05T01:05:42.904Z,4.93
2022-11-05T01:08:10.940Z,4.47
2022-11-05T01:10:53.593Z,5.35
2022-11-05T01:13:23.258Z,5.80
2022-11-05T01:15:51.440Z,5.07
2022-11-05T01:18:19.576Z,5.57
2022-11-05T01:20:46.868Z,5.25
2022-11-05T01:23:14.127Z,4.80
2022-11-05T01:25:44.733Z,4.22
2022-11-05T01:28:12.013Z,5.78
2022-11-05T01:30:40.246Z,4.50
2022-11-05T01:33:07.292Z,4.53
2022-11-05T01:35:34.259Z,4.28
2022-11-05T01:38:01.205Z,4.97
2022-11-05T01:40:31.099Z,18.05
2022-11-05T01:42:58.175Z,6.33
2022-11-05T01:45:28.999Z,5.18
2022-11-05T01:48:09.488Z,4.10
2022-11-05T01:50:44.790Z,6.43
2022-11-05T01:53:29.557Z,4.38
2022-11-05T01:56:03.056Z,4.03
2022-11-05T01:58:36.100Z,4.65
2022-11-05T02:01:03.043Z,3.40
2022-11-05T02:03:31.055Z,4.88
2022-11-05T02:06:01.027Z,3.42
2022-11-05T02:08:56.119Z,4.80
2022-11-05T02:11:23.148Z,4.15
2022-11-05T02:13:50.600Z,4.65
2022-11-05T02:16:32.476Z,3.85
2022-11-05T02:19:11.996Z,4.72
2022-11-05T02:22:12.713Z,4.67
2022-11-05T02:24:57.597Z,4.78
2022-11-05T02:27:44.365Z,4.22
2022-11-05T02:30:35.769Z,4.32
2022-11-05T02:33:25.741Z,4.13
2022-11-05T02:36:06.976Z,5.20
2022-11-05T02:38:52.027Z,4.93
2022-11-05T02:41:30.401Z,6.78
2022-11-05T02:44:26.652Z,4.43
2022-11-05T02:47:17.882Z,6.50
2022-11-05T02:49:58.019Z,7.10
2022-11-05T02:53:08.511Z,5.82
2022-11-05T02:55:59.596Z,6.00
2022-11-05T02:58:30.621Z,4.50
2022-11-05T03:00:59.225Z,5.10
2022-11-05T03:03:43.301Z,3.97
2022-11-05T03:06:41.832Z,4.90
2022-11-05T03:09:22.550Z,4.60
2022-11-05T03:11:55.514Z,4.53
2022-11-05T03:14:43.982Z,4.32
2022-11-05T03:17:27.162Z,4.03
2022-11-05T03:20:08.828Z,4.88
2022-11-05T03:22:43.483Z,4.07
2022-11-05T03:25:17.848Z,4.65
2022-11-05T03:27:47.819Z,4.72
2022-11-05T03:30:19.113Z,4.37
2022-11-05T03:32:51.209Z,4.90
2022-11-05T03:35:26.428Z,4.38
2022-11-05T03:38:01.518Z,4.78
2022-11-05T03:40:33.652Z,4.40
2022-11-05T03:43:03.151Z,4.23
2022-11-05T03:45:37.196Z,4.47
2022-11-05T03:48:06.485Z,3.90
2022-11-05T03:50:44.919Z,12.25
2022-11-05T03:53:28.129Z,6.55
2022-11-05T03:56:03.052Z,4.47
2022-11-05T03:58:32.103Z,3.80
2022-11-05T04:01:04.344Z,3.55
2022-11-05T04:03:36.619Z,7.22
2022-11-05T04:06:24.671Z,5.40
2022-11-05T04:09:10.149Z,6.30
2022-11-05T04:11:55.832Z,7.20
2022-11-05T04:14:22.882Z,4.72
2022-11-05T04:17:09.693Z,5.88
2022-11-05T04:20:00.425Z,4.80
2022-11-05T04:22:48.442Z,8.80
2022-11-05T04:25:17.145Z,5.75
2022-11-05T04:27:44.909Z,6.90
2022-11-05T04:30:19.111Z,5.25
2022-11-05T04:33:16.532Z,6.03
2022-11-05T04:35:48.739Z,8.23
2022-11-05T04:38:20.057Z,7.65
2022-11-05T04:40:48.345Z,4.85
2022-11-05T04:43:18.675Z,5.97
2022-11-05T04:45:46.427Z,6.15
2022-11-05T04:48:13.740Z,6.27
2022-11-05T04:50:40.649Z,8.20
2022-11-05T04:53:07.833Z,5.10
2022-11-05T04:55:35.014Z,4.85
2022-11-05T04:58:01.995Z,6.60
2022-11-05T05:00:29.104Z,5.33
2022-11-05T05:02:56.020Z,5.07
2022-11-05T05:05:23.255Z,5.85
2022-11-05T05:07:50.271Z,6.68
2022-11-05T05:10:17.502Z,11.45
2022-11-05T05:12:44.424Z,6.10
2022-11-05T05:15:11.375Z,4.20
2022-11-05T05:17:38.426Z,6.13
2022-11-05T05:20:24.339Z,5.38
2022-11-05T05:22:53.179Z,5.00
2022-11-05T05:25:20.865Z,4.47
2022-11-05T05:27:47.743Z,4.47
2022-11-05T05:30:14.753Z,5.80
2022-11-05T05:32:41.644Z,5.05
2022-11-05T05:35:09.100Z,7.05
2022-11-05T05:37:36.128Z,4.70
2022-11-05T05:40:03.238Z,6.25
2022-11-05T05:42:30.738Z,7.95
2022-11-05T05:44:57.591Z,9.07
2022-11-05T05:47:24.521Z,7.38
2022-11-05T05:49:51.483Z,7.10
2022-11-05T05:52:18.345Z,5.70
2022-11-05T05:54:45.410Z,5.60
2022-11-05T05:57:12.382Z,4.70
2022-11-05T05:59:39.322Z,7.38
2022-11-05T06:02:06.520Z,6.67
2022-11-05T06:04:33.562Z,5.47
2022-11-05T06:07:00.566Z,6.18
2022-11-05T06:09:27.543Z,4.28
2022-11-05T06:11:54.466Z,4.18
2022-11-05T06:14:21.395Z,4.53
2022-11-05T06:16:48.370Z,4.93
2022-11-05T06:19:15.326Z,5.45
2022-11-05T06:21:42.360Z,9.85
2022-11-05T06:24:09.257Z,5.75
2022-11-05T06:26:36.164Z,6.03
2022-11-05T06:29:03.133Z,5.20
2022-11-05T06:31:30.034Z,7.03
2022-11-05T06:33:57.033Z,7.43
2022-11-05T06:36:23.960Z,4.50
2022-11-05T06:38:50.871Z,4.60
2022-11-05T06:41:17.885Z,4.70
2022-11-05T06:43:44.783Z,5.32
2022-11-05T06:46:12.167Z,5.13
2022-11-05T06:48:39.613Z,9.27
2022-11-05T06:51:08.244Z,5.33
2022-11-05T06:53:35.880Z,5.00
2022-11-05T06:56:05.420Z,6.10
2022-11-05T06:58:33.080Z,5.60
2022-11-05T07:01:05.485Z,5.55
2022-11-05T07:03:32.490Z,4.13
2022-11-05T07:06:00.864Z,4.30
2022-11-05T07:08:32.554Z,4.10
2022-11-05T07:11:00.092Z,5.28
2022-11-05T07:13:27.273Z,5.20
2022-11-05T07:15:54.305Z,5.67
2022-11-05T07:18:21.352Z,7.68
2022-11-05T07:20:49.322Z,9.98
2022-11-05T07:23:17.037Z,8.20
2022-11-05T07:25:45.033Z,6.30
2022-11-05T07:28:12.129Z,10.23
2022-11-05T07:30:39.058Z,7.97
2022-11-05T07:33:06.104Z,4.78
2022-11-05T07:35:33.137Z,6.88
2022-11-05T07:38:00.244Z,10.25
2022-11-05T07:40:29.233Z,14.30
2022-11-05T07:42:58.718Z,13.07
2022-11-05T07:45:27.401Z,10.07
2022-11-05T07:48:03.079Z,8.63
2022-11-05T07:50:33.060Z,7.13
2022-11-05T07:53:10.194Z,10.67
2022-11-05T07:55:38.071Z,9.60
2022-11-05T07:58:04.955Z,8.13
2022-11-05T08:00:33.040Z,12.63
2022-11-05T08:03:12.850Z,12.65
2022-11-05T08:05:44.707Z,10.23
2022-11-05T08:08:14.464Z,8.15
2022-11-05T08:10:42.231Z,7.50
2022-11-05T08:13:09.977Z,11.20
2022-11-05T08:15:37.344Z,9.88
2022-11-05T08:18:06.991Z,13.13
2022-11-05T08:20:34.822Z,10.20
2022-11-05T08:23:01.733Z,14.60
2022-11-05T08:25:28.903Z,11.65
2022-11-05T08:28:01.263Z,9.50
2022-11-05T08:30:29.371Z,7.73
2022-11-05T08:32:58.986Z,8.32
2022-11-05T08:35:27.299Z,8.35
2022-11-05T08:38:03.028Z,8.05
2022-11-05T08:40:31.841Z,9.88
2022-11-05T08:43:00.308Z,7.73
2022-11-05T08:45:27.813Z,9.43
2022-11-05T08:48:05.717Z,8.95
2022-11-05T08:50:33.866Z,6.95
2022-11-05T08:53:01.243Z,7.57
2022-11-05T08:55:28.332Z,7.80
2022-11-05T08:58:00.163Z,9.52
2022-11-05T09:00:29.523Z,9.40
2022-11-05T09:02:59.883Z,8.52
2022-11-05T09:05:28.029Z,7.13
2022-11-05T09:08:00.516Z,9.77
2022-11-05T09:10:28.784Z,8.25
2022-11-05T09:12:56.032Z,8.15
2022-11-05T09:15:23.586Z,6.30
2022-11-05T09:17:51.186Z,6.40
2022-11-05T09:20:18.590Z,6.50
2022-11-05T09:22:46.642Z,6.05
2022-11-05T09:25:15.322Z,6.43
2022-11-05T09:27:43.174Z,5.95
2022-11-05T09:30:11.692Z,8.98
2022-11-05T09:32:42.200Z,5.63
2022-11-05T09:35:09.697Z,6.88
2022-11-05T09:37:37.312Z,6.70
2022-11-05T09:40:05.590Z,6.78
2022-11-05T09:42:41.346Z,6.78
2022-11-05T09:45:20.573Z,5.27
2022-11-05T09:47:59.333Z,7.43
2022-11-05T09:50:33.837Z,14.25
2022-11-05T09:53:01.952Z,6.47
2022-11-05T09:55:34.070Z,6.57
2022-11-05T09:58:06.678Z,7.03
2022-11-05T10:00:34.445Z,7.82
2022-11-05T10:03:08.439Z,6.82
2022-11-05T10:05:37.923Z,8.85
2022-11-05T10:08:38.728Z,6.93
2022-11-05T10:11:10.635Z,6.37
2022-11-05T10:13:48.513Z,7.53
2022-11-05T10:16:33.627Z,5.43
2022-11-05T10:19:13.630Z,8.23
2022-11-05T10:24:28.771Z,6.10
2022-11-05T10:26:56.779Z,7.43
2022-11-05T10:29:30.320Z,12.50
2022-11-05T10:31:59.959Z,8.05
2022-11-05T10:34:32.323Z,8.27
2022-11-05T10:36:59.585Z,7.40
2022-11-05T10:39:29.976Z,10.10
2022-11-05T10:42:27.758Z,8.98
2022-11-05T10:45:20.645Z,8.52
2022-11-05T10:48:01.276Z,9.70
2022-11-05T10:50:30.145Z,10.93
2022-11-05T10:53:05.589Z,9.75
2022-11-05T10:55:38.289Z,10.07
2022-11-05T10:58:29.203Z,10.38
2022-11-05T11:01:07.079Z,9.55
2022-11-05T11:04:16.215Z,10.50
2022-11-05T11:06:55.062Z,14.38
2022-11-05T11:09:28.313Z,13.32
2022-11-05T11:12:19.086Z,10.07
2022-11-05T11:15:04.790Z,8.88
2022-11-05T11:17:32.729Z,12.00
2022-11-05T11:20:29.634Z,9.52
2022-11-05T11:23:22.936Z,13.82
2022-11-05T11:26:00.778Z,9.45
2022-11-05T11:28:35.580Z,12.30
2022-11-05T11:31:02.358Z,16.20
2022-11-05T11:33:31.703Z,11.57
2022-11-05T11:36:00.170Z,12.20
2022-11-05T11:38:31.470Z,9.60
2022-11-05T11:41:29.880Z,9.23
2022-11-05T11:44:02.688Z,12.57
2022-11-05T11:46:33.103Z,8.85
2022-11-05T11:49:01.004Z,10.00
2022-11-05T11:51:49.487Z,10.38
2022-11-05T11:54:28.639Z,8.93
2022-11-05T11:56:56.167Z,10.73
2022-11-05T11:59:53.847Z,9.95
2022-11-05T12:02:43.330Z,10.48
2022-11-05T12:05:35.372Z,8.60
2022-11-05T12:08:11.538Z,9.80
2022-11-05T12:11:18.415Z,9.83
2022-11-05T12:14:00.451Z,8.13
2022-11-05T12:16:39.521Z,8.85
2022-11-05T12:19:49.499Z,7.82
2022-11-05T12:22:36.631Z,9.70
2022-11-05T12:25:41.021Z,9.63
2022-11-05T12:28:17.076Z,9.32
2022-11-05T12:31:05.457Z,10.27
2022-11-05T12:34:07.830Z,8.18
2022-11-05T12:36:45.369Z,9.25
2022-11-05T12:39:35.280Z,7.50
2022-11-05T12:42:14.825Z,7.40
2022-11-05T12:45:00.070Z,8.80
2022-11-05T12:47:46.188Z,7.68
2022-11-05T12:50:48.101Z,6.82
2022-11-05T12:53:15.207Z,6.60
2022-11-05T12:55:48.534Z,8.82
2022-11-05T12:58:21.913Z,7.90
2022-11-05T13:00:56.683Z,10.55
2022-11-05T13:03:32.647Z,12.10
2022-11-05T13:06:07.761Z,10.00
2022-11-05T13:09:06.963Z,7.60
2022-11-05T13:11:39.933Z,8.30
2022-11-05T13:14:16.030Z,10.10
2022-11-05T13:17:07.641Z,10.85
2022-11-05T13:19:56.596Z,10.63
2022-11-05T13:22:34.662Z,12.18
2022-11-05T13:25:13.216Z,8.00
2022-11-05T13:28:15.864Z,9.10
2022-11-05T13:30:47.831Z,9.63
2022-11-05T13:33:36.655Z,10.23
2022-11-05T13:36:37.098Z,7.78
2022-11-05T13:39:26.131Z,12.25
2022-11-05T13:42:12.539Z,10.85
2022-11-05T13:44:43.931Z,9.02
2022-11-05T13:47:14.186Z,8.73
2022-11-05T13:49:41.164Z,7.68
2022-11-05T13:52:22.106Z,8.85
2022-11-05T13:55:14.093Z,9.55
2022-11-05T13:58:05.364Z,11.27
2022-11-05T14:00:44.928Z,12.47
2022-11-05T14:03:20.910Z,12.35
2022-11-05T14:06:07.847Z,9.32
2022-11-05T14:08:46.025Z,9.07
2022-11-05T14:11:27.157Z,12.18
2022-11-05T14:14:01.606Z,10.33
2022-11-05T14:16:47.273Z,8.20
2022-11-05T14:19:20.454Z,8.57
2022-11-05T14:21:53.365Z,9.13
2022-11-05T14:24:23.158Z,7.32
2022-11-05T14:27:02.338Z,8.47
2022-11-05T14:29:49.005Z,10.93
2022-11-05T14:32:18.996Z,13.80
2022-11-05T14:34:54.786Z,11.85
2022-11-05T14:37:39.586Z,9.88
2022-11-05T14:40:42.417Z,10.87
2022-11-05T14:43:27.257Z,13.95
2022-11-05T14:46:01.769Z,12.48
2022-11-05T14:48:47.158Z,10.30
2022-11-05T14:51:31.116Z,13.35
2022-11-05T14:54:06.060Z,9.67
2022-11-05T14:56:45.757Z,11.93
2022-11-05T14:59:24.900Z,11.52
2022-11-05T15:01:57.393Z,12.73
2022-11-05T15:04:29.879Z,14.20
2022-11-05T15:07:04.708Z,12.23
2022-11-05T15:10:19.377Z,13.75
2022-11-05T15:13:01.868Z,9.82
2022-11-05T15:15:38.758Z,15.20
2022-11-05T15:18:11.917Z,11.40
2022-11-05T15:20:43.655Z,11.87
2022-11-05T15:23:17.268Z,12.98
2022-11-05T15:26:02.309Z,13.32
2022-11-05T15:28:48.326Z,11.77
2022-11-05T15:31:15.246Z,14.43
2022-11-05T15:33:49.299Z,13.60
2022-11-05T15:36:26.688Z,12.05
2022-11-05T15:39:23.067Z,10.88
2022-11-05T15:41:43.089Z,11.98
2022-11-05T15:44:28.438Z,11.75
2022-11-05T15:47:16.659Z,16.13
2022-11-05T15:49:46.357Z,11.38
2022-11-05T15:52:18.715Z,15.18
2022-11-05T15:54:45.988Z,13.88
2022-11-05T15:57:29.350Z,12.32
2022-11-05T15:59:58.940Z,12.97
2022-11-05T16:02:31.106Z,15.55
2022-11-05T16:05:01.759Z,14.30
2022-11-05T16:07:30.409Z,12.50
2022-11-05T16:10:00.086Z,56.35
2022-11-05T16:12:37.928Z,60.00
2022-11-05T16:15:10.712Z,60.20
2022-11-05T16:17:37.659Z,45.88
2022-11-05T16:20:38.925Z,63.60
2022-11-05T16:23:21.813Z,22.90
2022-11-05T16:25:50.629Z,31.20
2022-11-05T16:28:29.183Z,43.42
2022-11-05T16:31:04.635Z,26.15
2022-11-05T16:33:43.447Z,26.05
2022-11-05T16:36:10.645Z,18.33
2022-11-05T16:38:37.695Z,13.90
2022-11-05T16:41:04.933Z,12.93
2022-11-05T16:43:32.153Z,15.48
2022-11-05T16:46:01.814Z,15.30
2022-11-05T16:48:28.920Z,14.25
2022-11-05T16:50:56.462Z,11.80
2022-11-05T16:53:23.892Z,20.02
2022-11-05T16:55:53.078Z,13.55
2022-11-05T16:58:23.351Z,13.70
2022-11-05T17:01:02.941Z,13.32
2022-11-05T17:03:31.144Z,19.20
2022-11-05T17:05:58.807Z,15.48
2022-11-05T17:08:26.007Z,15.68
2022-11-05T17:10:53.464Z,16.23
2022-11-05T17:13:20.912Z,18.17
2022-11-05T17:15:50.782Z,16.87
2022-11-05T17:18:19.458Z,15.25
2022-11-05T17:20:49.958Z,18.15
2022-11-05T17:23:22.789Z,14.60
2022-11-05T17:25:52.994Z,13.48
2022-11-05T17:28:21.381Z,13.77
2022-11-05T17:30:54.897Z,12.48
2022-11-05T17:33:23.394Z,9.98
2022-11-05T17:35:51.592Z,12.68
2022-11-05T17:38:19.916Z,10.60
2022-11-05T17:40:47.621Z,14.20
2022-11-05T17:43:15.809Z,10.00
2022-11-05T17:45:46.018Z,14.02
2022-11-05T17:48:13.820Z,12.35
2022-11-05T17:50:49.271Z,15.35
2022-11-05T17:53:18.977Z,10.77
2022-11-05T17:55:47.314Z,11.70
2022-11-05T17:58:14.961Z,12.07
2022-11-05T18:00:44.004Z,14.23
2022-11-05T18:03:12.542Z,12.85
2022-11-05T18:05:41.189Z,12.27
2022-11-05T18:08:09.518Z,11.60
2022-11-05T18:10:37.819Z,13.80
2022-11-05T18:13:05.686Z,13.70
2022-11-05T18:15:33.377Z,14.10
2022-11-05T18:18:00.503Z,11.23
2022-11-05T18:20:27.622Z,14.63
2022-11-05T18:22:54.857Z,13.43
2022-11-05T18:25:21.990Z,12.27
2022-11-05T18:27:49.095Z,11.95
2022-11-05T18:30:16.219Z,12.00
2022-11-05T18:32:44.770Z,11.85
2022-11-05T18:35:16.331Z,41.20
2022-11-05T18:37:43.522Z,20.15
2022-11-05T18:40:11.457Z,14.65
2022-11-05T18:42:39.159Z,11.80
2022-11-05T18:45:07.543Z,13.25
2022-11-05T18:47:34.846Z,13.57
2022-11-05T18:50:02.755Z,10.73
2022-11-05T18:52:32.015Z,12.93
2022-11-05T18:54:59.861Z,11.53
2022-11-05T18:57:27.832Z,11.82
2022-11-05T18:59:55.237Z,11.90
2022-11-05T19:02:22.609Z,13.48
2022-11-05T19:05:13.904Z,11.07
2022-11-05T19:07:38.567Z,15.23
2022-11-05T19:10:06.632Z,14.07
2022-11-05T19:12:34.319Z,12.55
2022-11-05T19:15:02.947Z,16.15
2022-11-05T19:17:33.354Z,17.45
2022-11-05T19:20:01.838Z,16.40
2022-11-05T19:22:31.127Z,20.27
2022-11-05T19:24:58.242Z,12.27
2022-11-05T19:27:25.559Z,13.88
2022-11-05T19:29:53.535Z,13.98
2022-11-05T19:32:21.434Z,13.50
2022-11-05T19:34:50.808Z,13.93
2022-11-05T19:37:20.052Z,16.60
2022-11-05T19:39:47.218Z,17.50
2022-11-05T19:42:14.397Z,14.18
2022-11-05T19:44:43.140Z,13.40
2022-11-05T19:47:10.442Z,15.45
2022-11-05T19:49:37.524Z,17.08
2022-11-05T19:52:04.838Z,13.68
2022-11-05T19:54:31.901Z,13.98
2022-11-05T19:56:58.987Z,17.70
2022-11-05T19:59:26.223Z,18.25
2022-11-05T20:01:53.340Z,17.15
2022-11-05T20:04:20.440Z,14.45
2022-11-05T20:06:47.504Z,17.83
2022-11-05T20:09:21.608Z,15.47
2022-11-05T20:11:52.578Z,15.25
2022-11-05T20:14:20.112Z,14.35
2022-11-05T20:21:20.928Z,15.98
2022-11-05T20:23:48.004Z,37.10
2022-11-05T20:26:15.982Z,23.42
2022-11-05T20:28:43.949Z,15.25
2022-11-05T20:31:14.056Z,19.45
2022-11-05T20:33:41.780Z,17.25
2022-11-05T20:36:13.763Z,20.03
2022-11-05T20:38:41.344Z,15.40
2022-11-05T20:41:12.758Z,17.25
2022-11-05T20:43:44.265Z,18.75
2022-11-05T20:46:14.345Z,14.15
2022-11-05T20:48:41.963Z,17.37
2022-11-05T20:51:14.433Z,15.73
2022-11-05T20:53:41.871Z,15.60
2022-11-05T20:56:15.322Z,14.20
2022-11-05T20:58:42.203Z,15.30
2022-11-05T21:01:11.956Z,15.53
2022-11-05T21:03:39.203Z,15.32
2022-11-05T21:06:06.536Z,14.32
2022-11-05T21:08:33.858Z,14.35
2022-11-05T21:11:01.267Z,16.20
2022-11-05T21:13:28.924Z,14.93
2022-11-05T21:15:59.143Z,13.85
2022-11-05T21:18:28.942Z,17.15
2022-11-05T21:20:56.502Z,14.15
2022-11-05T21:23:23.604Z,14.30
2022-11-05T21:25:50.586Z,15.63
2022-11-05T21:28:18.760Z,14.18
2022-11-05T21:30:46.724Z,15.02
2022-11-05T21:33:15.521Z,14.55
2022-11-05T21:35:45.164Z,18.98
2022-11-05T21:38:15.131Z,17.27
2022-11-05T21:40:42.905Z,15.82
2022-11-05T21:43:10.727Z,15.73
2022-11-05T21:45:42.021Z,16.98
2022-11-05T21:48:10.358Z,15.60
2022-11-05T21:51:00.065Z,18.77
2022-11-05T21:53:45.510Z,17.23
2022-11-05T21:56:39.531Z,17.80
2022-11-05T21:59:24.893Z,15.48
2022-11-05T22:02:01.404Z,16.67
2022-11-05T22:04:31.237Z,17.67
2022-11-05T22:06:59.261Z,15.13
2022-11-05T22:09:26.761Z,16.40
2022-11-05T22:11:54.333Z,18.00
2022-11-05T22:14:21.919Z,17.50
2022-11-05T22:16:48.923Z,19.20
2022-11-05T22:19:16.163Z,18.58
2022-11-05T22:21:43.277Z,18.15
2022-11-05T22:24:10.435Z,17.20
2022-11-05T22:26:38.537Z,16.92
2022-11-05T22:29:06.645Z,17.77
2022-11-05T22:31:36.482Z,17.98
2022-11-05T22:34:05.107Z,19.35
2022-11-05T22:36:33.398Z,15.32
2022-11-05T22:39:00.746Z,17.17
2022-11-05T22:41:27.891Z,14.97
2022-11-05T22:43:55.824Z,16.60
2022-11-05T22:46:26.472Z,18.02
2022-11-05T22:48:54.527Z,16.15
2022-11-05T22:51:30.083Z,18.00
2022-11-05T22:53:58.724Z,16.90
2022-11-05T22:56:30.545Z,17.02
2022-11-05T22:58:58.207Z,15.32
2022-11-05T23:01:26.395Z,19.02
2022-11-05T23:03:56.875Z,15.98
2022-11-05T23:06:48.542Z,19.10
2022-11-05T23:09:40.763Z,17.05
2022-11-05T23:12:19.578Z,16.00
2022-11-05T23:14:46.971Z,17.98
2022-11-05T23:22:00.540Z,17.00
2022-11-05T23:24:27.492Z,17.50
2022-11-05T23:26:54.560Z,15.02
2022-11-05T23:29:25.050Z,17.27
2022-11-05T23:32:10.982Z,17.70
2022-11-05T23:34:38.597Z,15.87
2022-11-05T23:37:25.265Z,15.45
2022-11-05T23:39:52.303Z,17.33
2022-11-05T23:42:37.759Z,15.50
2022-11-05T23:45:24.629Z,15.35
2022-11-05T23:48:10.901Z,16.33
2022-11-05T23:50:40.023Z,16.30
2022-11-05T23:53:08.245Z,17.23
2022-11-05T23:55:35.822Z,17.17
2022-11-05T23:58:03.158Z,17.83
